Time,TemperatureF,DewpointF,PressureIn,WindDirection,WindDirectionDegrees,WindSpeedMPH,WindSpeedGustMPH,Humidity,HourlyPrecipIn,Conditions,Clouds,dailyrainin,SoftwareType,DateUTC
2013-06-03 00:00:00,66.7,66.0,29.21,WSW,247,0.0,5.0,97,0.06,,,0.18,Rainwise IP-100,2013-06-03 04:00:00,
2013-06-03 00:01:00,66.7,66.0,29.21,WSW,247,0.0,1.0,97,0.06,,,0.00,Rainwise IP-100,2013-06-03 04:01:00,
2013-06-03 00:06:00,66.6,66.0,29.21,SSE,157,0.0,2.0,97,0.00,,,0.00,Rainwise IP-100,2013-06-03 04:06:00,
2013-06-03 00:11:00,66.4,65.5,29.21,ENE,67,1.0,3.0,97,0.06,,,0.01,Rainwise IP-100,2013-06-03 04:11:00,
2013-06-03 00:16:00,66.4,66.0,29.21,ENE,67,0.0,4.0,98,0.06,,,0.01,Rainwise IP-100,2013-06-03 04:16:00,
2013-06-03 00:21:00,66.4,66.0,29.21,ENE,67,0.0,0.0,98,0.00,,,0.01,Rainwise IP-100,2013-06-03 04:21:00,
2013-06-03 00:26:00,66.4,66.0,29.21,SW,225,0.0,4.0,98,0.00,,,0.01,Rainwise IP-100,2013-06-03 04:26:00,
2013-06-03 00:31:00,66.5,66.3,29.21,SW,225,0.0,3.0,98,0.00,,,0.01,Rainwise IP-100,2013-06-03 04:31:00,
2013-06-03 00:36:00,66.5,66.3,29.21,SSW,202,0.0,4.0,98,0.00,,,0.01,Rainwise IP-100,2013-06-03 04:36:00,
2013-06-03 00:42:00,66.5,66.3,29.21,SW,225,0.0,0.0,98,0.00,,,0.01,Rainwise IP-100,2013-06-03 04:42:00,
2013-06-03 00:47:00,66.4,66.0,29.21,North,360,2.0,4.0,98,0.00,,,0.01,Rainwise IP-100,2013-06-03 04:47:00,
2013-06-03 00:52:00,66.4,66.0,29.20,North,360,0.0,2.0,98,0.00,,,0.01,Rainwise IP-100,2013-06-03 04:52:00,
2013-06-03 00:57:00,66.5,66.0,29.20,North,360,0.0,0.0,97,0.00,,,0.01,Rainwise IP-100,2013-06-03 04:57:00,
2013-06-03 01:02:00,66.6,65.5,29.20,North,360,0.0,0.0,96,0.00,,,0.01,Rainwise IP-100,2013-06-03 05:02:00,
2013-06-03 01:07:00,66.6,65.5,29.19,North,360,0.0,0.0,96,0.00,,,0.01,Rainwise IP-100,2013-06-03 05:07:00,
2013-06-03 01:12:00,66.7,65.5,29.20,WSW,247,1.0,0.0,96,0.00,,,0.01,Rainwise IP-100,2013-06-03 05:12:00,
2013-06-03 01:18:00,66.5,66.3,29.20,West,270,3.0,5.0,99,0.00,,,0.01,Rainwise IP-100,2013-06-03 05:18:00,
2013-06-03 01:23:00,66.4,66.3,29.20,WSW,247,5.0,6.0,100,0.00,,,0.01,Rainwise IP-100,2013-06-03 05:23:00,
2013-06-03 01:28:00,66.3,66.0,29.20,WSW,247,2.0,5.0,99,0.00,,,0.01,Rainwise IP-100,2013-06-03 05:28:00,
2013-06-03 01:33:00,66.2,66.0,29.20,WSW,247,1.0,5.0,99,0.00,,,0.01,Rainwise IP-100,2013-06-03 05:33:00,
2013-06-03 01:38:00,66.1,65.5,29.19,WSW,247,0.0,3.0,99,0.00,,,0.01,Rainwise IP-100,2013-06-03 05:38:00,
2013-06-03 01:43:00,65.9,65.5,29.19,WSW,247,0.0,0.0,99,0.00,,,0.01,Rainwise IP-100,2013-06-03 05:43:00,
2013-06-03 01:48:00,65.8,65.5,29.19,WSW,247,0.0,0.0,99,0.00,,,0.01,Rainwise IP-100,2013-06-03 05:48:00,
2013-06-03 01:53:00,65.9,65.5,29.19,SE,135,0.0,0.0,99,0.00,,,0.01,Rainwise IP-100,2013-06-03 05:53:00,
2013-06-03 01:59:00,65.9,65.5,29.19,SE,135,0.0,0.0,98,0.00,,,0.01,Rainwise IP-100,2013-06-03 05:59:00,
2013-06-03 02:04:00,65.9,65.5,29.19,SE,135,0.0,0.0,98,0.00,,,0.01,Rainwise IP-100,2013-06-03 06:04:00,
2013-06-03 02:09:00,65.9,65.5,29.20,SE,135,0.0,0.0,98,0.00,,,0.01,Rainwise IP-100,2013-06-03 06:09:00,
2013-06-03 02:14:00,65.9,65.5,29.20,South,180,0.0,0.0,98,0.00,,,0.01,Rainwise IP-100,2013-06-03 06:14:00,
2013-06-03 02:19:00,65.8,65.5,29.20,SW,225,2.0,5.0,98,0.00,,,0.01,Rainwise IP-100,2013-06-03 06:19:00,
2013-06-03 02:24:00,65.7,65.5,29.20,WSW,247,3.0,5.0,100,0.00,,,0.01,Rainwise IP-100,2013-06-03 06:24:00,
2013-06-03 02:29:00,65.7,65.0,29.20,WSW,247,1.0,4.0,99,0.00,,,0.01,Rainwise IP-100,2013-06-03 06:29:00,
2013-06-03 02:35:00,65.6,65.5,29.19,WSW,247,0.0,4.0,100,0.00,,,0.01,Rainwise IP-100,2013-06-03 06:35:00,
2013-06-03 02:40:00,65.7,65.0,29.19,WSW,247,0.0,2.0,98,0.00,,,0.01,Rainwise IP-100,2013-06-03 06:40:00,
2013-06-03 02:45:00,65.6,65.0,29.18,WSW,247,0.0,1.0,98,0.00,,,0.01,Rainwise IP-100,2013-06-03 06:45:00,
2013-06-03 02:51:00,65.4,65.0,29.18,ESE,112,1.0,0.0,98,0.00,,,0.01,Rainwise IP-100,2013-06-03 06:51:00,
2013-06-03 02:52:00,65.4,65.0,29.18,ESE,112,2.0,0.0,99,0.00,,,0.01,Rainwise IP-100,2013-06-03 06:52:00,
2013-06-03 02:57:00,65.4,65.0,29.18,ESE,112,0.0,2.0,99,0.00,,,0.01,Rainwise IP-100,2013-06-03 06:57:00,
2013-06-03 03:02:00,65.3,65.5,29.18,SW,225,0.0,1.0,100,0.00,,,0.01,Rainwise IP-100,2013-06-03 07:02:00,
2013-06-03 03:07:00,65.2,64.5,29.18,SW,225,0.0,0.0,99,0.00,,,0.01,Rainwise IP-100,2013-06-03 07:07:00,
2013-06-03 03:12:00,65.0,64.5,29.18,SW,225,0.0,0.0,99,0.00,,,0.01,Rainwise IP-100,2013-06-03 07:12:00,
2013-06-03 03:18:00,64.9,64.5,29.18,SW,225,0.0,0.0,99,0.00,,,0.01,Rainwise IP-100,2013-06-03 07:18:00,
2013-06-03 03:23:00,64.9,64.5,29.18,SW,225,0.0,0.0,99,0.00,,,0.01,Rainwise IP-100,2013-06-03 07:23:00,
2013-06-03 03:28:00,64.7,64.0,29.18,SW,225,0.0,0.0,99,0.00,,,0.01,Rainwise IP-100,2013-06-03 07:28:00,
2013-06-03 03:33:00,64.5,64.0,29.18,SW,225,0.0,0.0,99,0.00,,,0.01,Rainwise IP-100,2013-06-03 07:33:00,
2013-06-03 03:38:00,64.3,64.0,29.18,SW,225,4.0,4.0,99,0.00,,,0.01,Rainwise IP-100,2013-06-03 07:38:00,
2013-06-03 03:43:00,64.2,64.0,29.18,SW,225,0.0,5.0,100,0.00,,,0.01,Rainwise IP-100,2013-06-03 07:43:00,
2013-06-03 03:48:00,64.4,64.5,29.18,SW,225,3.0,4.0,100,0.00,,,0.01,Rainwise IP-100,2013-06-03 07:48:00,
2013-06-03 03:53:00,64.4,64.5,29.18,WSW,247,1.0,4.0,100,0.00,,,0.01,Rainwise IP-100,2013-06-03 07:53:00,
2013-06-03 03:59:00,64.3,64.5,29.18,WSW,247,0.0,3.0,100,0.00,,,0.01,Rainwise IP-100,2013-06-03 07:59:00,
2013-06-03 04:04:00,64.1,63.5,29.18,WSW,247,0.0,0.0,99,0.00,,,0.01,Rainwise IP-100,2013-06-03 08:04:00,
2013-06-03 04:09:00,63.7,63.5,29.18,NNW,337,2.0,4.0,100,0.00,,,0.01,Rainwise IP-100,2013-06-03 08:09:00,
2013-06-03 04:14:00,63.4,63.0,29.18,NNW,337,0.0,3.0,99,0.00,,,0.01,Rainwise IP-100,2013-06-03 08:14:00,
2013-06-03 04:19:00,63.3,63.0,29.18,NNW,337,0.0,0.0,99,0.00,,,0.01,Rainwise IP-100,2013-06-03 08:19:00,
2013-06-03 04:24:00,63.3,63.0,29.18,NNW,337,0.0,0.0,99,0.00,,,0.01,Rainwise IP-100,2013-06-03 08:24:00,
2013-06-03 04:29:00,63.0,62.5,29.18,NNW,337,0.0,0.0,99,0.00,,,0.01,Rainwise IP-100,2013-06-03 08:29:00,
2013-06-03 04:35:00,62.9,62.5,29.18,NNW,337,0.0,0.0,99,0.00,,,0.01,Rainwise IP-100,2013-06-03 08:35:00,
2013-06-03 04:40:00,62.9,62.5,29.18,NNW,337,0.0,0.0,99,0.00,,,0.01,Rainwise IP-100,2013-06-03 08:40:00,
2013-06-03 04:45:00,62.8,62.5,29.18,NNW,337,0.0,0.0,99,0.00,,,0.01,Rainwise IP-100,2013-06-03 08:45:00,
2013-06-03 04:50:00,62.6,62.0,29.18,NNW,337,0.0,0.0,99,0.00,,,0.01,Rainwise IP-100,2013-06-03 08:50:00,
2013-06-03 04:55:00,62.6,62.0,29.18,WSW,247,1.0,4.0,99,0.00,,,0.01,Rainwise IP-100,2013-06-03 08:55:00,
2013-06-03 05:00:00,62.6,62.0,29.18,WSW,247,2.0,3.0,99,0.00,,,0.01,Rainwise IP-100,2013-06-03 09:00:00,
2013-06-03 05:05:00,62.6,62.5,29.18,WSW,247,3.0,4.0,100,0.00,,,0.01,Rainwise IP-100,2013-06-03 09:05:00,
2013-06-03 05:10:00,62.5,62.5,29.18,West,270,4.0,5.0,100,0.00,,,0.01,Rainwise IP-100,2013-06-03 09:10:00,
2013-06-03 05:15:00,62.3,62.5,29.18,WNW,292,2.0,6.0,100,0.00,,,0.01,Rainwise IP-100,2013-06-03 09:15:00,
2013-06-03 05:21:00,62.2,62.0,29.18,WSW,247,2.0,5.0,100,0.00,,,0.01,Rainwise IP-100,2013-06-03 09:21:00,
2013-06-03 05:26:00,62.1,62.0,29.17,WSW,247,4.0,5.0,100,0.00,,,0.01,Rainwise IP-100,2013-06-03 09:26:00,
2013-06-03 05:31:00,62.2,62.0,29.18,West,270,1.0,4.0,100,0.00,,,0.01,Rainwise IP-100,2013-06-03 09:31:00,
2013-06-03 05:36:00,62.1,61.5,29.19,West,270,0.0,3.0,99,0.00,,,0.01,Rainwise IP-100,2013-06-03 09:36:00,
2013-06-03 05:41:00,62.1,61.5,29.18,West,270,0.0,2.0,99,0.00,,,0.01,Rainwise IP-100,2013-06-03 09:41:00,
2013-06-03 05:46:00,61.8,62.0,29.18,West,270,0.0,1.0,100,0.00,,,0.01,Rainwise IP-100,2013-06-03 09:46:00,
2013-06-03 05:52:00,61.7,61.5,29.19,West,270,0.0,3.0,100,0.00,,,0.01,Rainwise IP-100,2013-06-03 09:52:00,
2013-06-03 05:57:00,61.7,61.5,29.19,West,270,0.0,0.0,100,0.00,,,0.01,Rainwise IP-100,2013-06-03 09:57:00,
2013-06-03 06:02:00,61.8,61.5,29.19,West,270,0.0,0.0,99,0.00,,,0.01,Rainwise IP-100,2013-06-03 10:02:00,
2013-06-03 06:07:00,61.6,61.0,29.19,West,270,0.0,2.0,99,0.00,,,0.01,Rainwise IP-100,2013-06-03 10:07:00,
2013-06-03 06:12:00,61.5,61.0,29.19,West,270,2.0,2.0,99,0.00,,,0.01,Rainwise IP-100,2013-06-03 10:12:00,
2013-06-03 06:17:00,61.4,61.5,29.19,West,270,1.0,3.0,100,0.00,,,0.01,Rainwise IP-100,2013-06-03 10:17:00,
2013-06-03 06:22:00,61.4,61.0,29.19,West,270,0.0,0.0,99,0.00,,,0.01,Rainwise IP-100,2013-06-03 10:22:00,
2013-06-03 06:27:00,61.5,61.5,29.19,SW,225,2.0,7.0,100,0.00,,,0.01,Rainwise IP-100,2013-06-03 10:27:00,
2013-06-03 06:32:00,61.9,62.0,29.19,SW,225,5.0,5.0,100,0.00,,,0.01,Rainwise IP-100,2013-06-03 10:32:00,
2013-06-03 06:38:00,62.3,62.5,29.19,WSW,247,1.0,6.0,100,0.00,,,0.01,Rainwise IP-100,2013-06-03 10:38:00,
2013-06-03 06:43:00,62.4,62.5,29.19,WSW,247,0.0,4.0,100,0.00,,,0.01,Rainwise IP-100,2013-06-03 10:43:00,
2013-06-03 06:48:00,62.5,62.5,29.19,WSW,247,2.0,5.0,100,0.00,,,0.01,Rainwise IP-100,2013-06-03 10:48:00,
2013-06-03 06:53:00,62.6,62.5,29.19,WSW,247,3.0,0.0,100,0.00,,,0.01,Rainwise IP-100,2013-06-03 10:53:00,
2013-06-03 06:58:00,62.7,62.5,29.20,WSW,247,0.0,3.0,100,0.00,,,0.01,Rainwise IP-100,2013-06-03 10:58:00,
2013-06-03 07:03:00,62.7,62.5,29.20,WSW,247,0.0,0.0,100,0.00,,,0.01,Rainwise IP-100,2013-06-03 11:03:00,
2013-06-03 07:08:00,62.7,62.5,29.20,WSW,247,0.0,0.0,100,0.00,,,0.01,Rainwise IP-100,2013-06-03 11:08:00,
2013-06-03 07:13:00,62.7,62.5,29.20,WSW,247,1.0,4.0,100,0.00,,,0.01,Rainwise IP-100,2013-06-03 11:13:00,
2013-06-03 07:18:00,62.9,62.5,29.19,WSW,247,0.0,4.0,99,0.00,,,0.01,Rainwise IP-100,2013-06-03 11:18:00,
2013-06-03 07:24:00,63.1,62.5,29.19,SW,225,0.0,5.0,99,0.00,,,0.01,Rainwise IP-100,2013-06-03 11:24:00,
2013-06-03 07:29:00,63.1,62.5,29.20,SW,225,3.0,6.0,99,0.00,,,0.01,Rainwise IP-100,2013-06-03 11:29:00,
2013-06-03 07:34:00,63.3,63.0,29.20,SW,225,2.0,6.0,99,0.00,,,0.01,Rainwise IP-100,2013-06-03 11:34:00,
2013-06-03 07:39:00,63.7,63.5,29.20,SE,135,0.0,4.0,100,0.00,,,0.01,Rainwise IP-100,2013-06-03 11:39:00,
2013-06-03 07:44:00,64.0,64.0,29.20,West,270,0.0,5.0,100,0.00,,,0.01,Rainwise IP-100,2013-06-03 11:44:00,
2013-06-03 07:49:00,64.3,64.0,29.21,WSW,247,0.0,5.0,99,0.00,,,0.01,Rainwise IP-100,2013-06-03 11:49:00,
2013-06-03 07:54:00,64.9,64.5,29.21,WSW,247,0.0,5.0,98,0.00,,,0.01,Rainwise IP-100,2013-06-03 11:54:00,
2013-06-03 08:00:00,65.2,64.5,29.21,WSW,247,2.0,4.0,98,0.00,,,0.01,Rainwise IP-100,2013-06-03 12:00:00,
2013-06-03 08:05:00,65.5,65.0,29.21,WSW,247,0.0,3.0,98,0.00,,,0.01,Rainwise IP-100,2013-06-03 12:05:00,
2013-06-03 08:10:00,65.8,65.5,29.21,SW,225,1.0,3.0,98,0.00,,,0.01,Rainwise IP-100,2013-06-03 12:10:00,
2013-06-03 08:15:00,66.0,65.0,29.21,ESE,112,0.0,2.0,97,0.00,,,0.01,Rainwise IP-100,2013-06-03 12:15:00,
2013-06-03 08:20:00,66.3,65.0,29.21,WSW,247,1.0,2.0,96,0.00,,,0.01,Rainwise IP-100,2013-06-03 12:20:00,
2013-06-03 08:25:00,66.1,64.5,29.21,South,180,0.0,5.0,96,0.00,,,0.01,Rainwise IP-100,2013-06-03 12:25:00,
2013-06-03 08:30:00,66.1,64.5,29.21,South,180,2.0,2.0,96,0.00,,,0.01,Rainwise IP-100,2013-06-03 12:30:00,
2013-06-03 08:35:00,66.2,65.0,29.21,SSE,157,0.0,3.0,96,0.00,,,0.01,Rainwise IP-100,2013-06-03 12:35:00,
2013-06-03 08:41:00,66.4,65.0,29.21,SSE,157,0.0,2.0,96,0.00,,,0.01,Rainwise IP-100,2013-06-03 12:41:00,
2013-06-03 08:46:00,66.5,65.5,29.21,SSE,157,2.0,4.0,96,0.00,,,0.01,Rainwise IP-100,2013-06-03 12:46:00,
2013-06-03 08:51:00,67.0,66.0,29.21,SSE,157,2.0,4.0,96,0.00,,,0.01,Rainwise IP-100,2013-06-03 12:51:00,
2013-06-03 08:56:00,67.2,65.0,29.22,East,90,3.0,6.0,93,0.00,,,0.01,Rainwise IP-100,2013-06-03 12:56:00,
2013-06-03 09:01:00,67.5,65.5,29.22,East,90,2.0,3.0,93,0.00,,,0.01,Rainwise IP-100,2013-06-03 13:01:00,
2013-06-03 09:06:00,67.5,66.0,29.22,South,180,3.0,5.0,94,0.00,,,0.01,Rainwise IP-100,2013-06-03 13:06:00,
2013-06-03 09:11:00,67.4,65.5,29.22,South,180,2.0,6.0,93,0.00,,,0.01,Rainwise IP-100,2013-06-03 13:11:00,
2013-06-03 09:17:00,67.4,65.5,29.22,South,180,1.0,5.0,93,0.00,,,0.01,Rainwise IP-100,2013-06-03 13:17:00,
2013-06-03 09:22:00,67.5,66.0,29.21,SSE,157,0.0,5.0,94,0.00,,,0.01,Rainwise IP-100,2013-06-03 13:22:00,
2013-06-03 09:27:00,67.6,65.5,29.22,SSE,157,0.0,5.0,93,0.00,,,0.01,Rainwise IP-100,2013-06-03 13:27:00,
2013-06-03 09:32:00,67.7,65.5,29.22,SE,135,1.0,6.0,92,0.00,,,0.01,Rainwise IP-100,2013-06-03 13:32:00,
2013-06-03 09:37:00,67.8,65.5,29.22,SW,225,2.0,6.0,92,0.00,,,0.01,Rainwise IP-100,2013-06-03 13:37:00,
2013-06-03 09:42:00,67.9,65.0,29.22,WSW,247,0.0,5.0,90,0.00,,,0.01,Rainwise IP-100,2013-06-03 13:42:00,
2013-06-03 09:47:00,68.5,66.0,29.22,ENE,67,0.0,6.0,91,0.00,,,0.01,Rainwise IP-100,2013-06-03 13:47:00,
2013-06-03 09:52:00,68.9,66.3,29.22,WSW,247,1.0,6.0,91,0.00,,,0.01,Rainwise IP-100,2013-06-03 13:52:00,
2013-06-03 09:58:00,68.9,65.5,29.22,WSW,247,6.0,7.0,89,0.00,,,0.01,Rainwise IP-100,2013-06-03 13:58:00,
2013-06-03 10:03:00,68.4,65.0,29.22,WSW,247,5.0,7.0,88,0.00,,,0.01,Rainwise IP-100,2013-06-03 14:03:00,
2013-06-03 10:08:00,68.3,65.0,29.22,ESE,112,0.0,6.0,88,0.00,,,0.01,Rainwise IP-100,2013-06-03 14:08:00,
2013-06-03 10:13:00,68.3,64.0,29.22,WSW,247,3.0,4.0,86,0.00,,,0.01,Rainwise IP-100,2013-06-03 14:13:00,
2013-06-03 10:18:00,67.9,63.5,29.22,WSW,247,5.0,7.0,86,0.00,,,0.01,Rainwise IP-100,2013-06-03 14:18:00,
2013-06-03 10:23:00,67.4,62.5,29.22,West,270,1.0,9.0,84,0.00,,,0.01,Rainwise IP-100,2013-06-03 14:23:00,
2013-06-03 10:28:00,67.6,62.0,29.23,WSW,247,6.0,7.0,82,0.00,,,0.01,Rainwise IP-100,2013-06-03 14:28:00,
2013-06-03 10:34:00,67.4,61.5,29.23,WSW,247,6.0,10.0,81,0.00,,,0.01,Rainwise IP-100,2013-06-03 14:34:00,
2013-06-03 10:39:00,67.4,62.0,29.22,WSW,247,5.0,6.0,83,0.00,,,0.01,Rainwise IP-100,2013-06-03 14:39:00,
2013-06-03 10:44:00,67.9,62.5,29.22,West,270,2.0,7.0,83,0.00,,,0.01,Rainwise IP-100,2013-06-03 14:44:00,
2013-06-03 10:49:00,68.4,61.5,29.23,SW,225,4.0,9.0,79,0.00,,,0.01,Rainwise IP-100,2013-06-03 14:49:00,
2013-06-03 10:54:00,68.8,61.0,29.23,WNW,292,5.0,7.0,76,0.00,,,0.01,Rainwise IP-100,2013-06-03 14:54:00,
2013-06-03 10:59:00,69.7,60.5,29.23,West,270,3.0,7.0,73,0.00,,,0.01,Rainwise IP-100,2013-06-03 14:59:00,
2013-06-03 11:04:00,70.3,63.5,29.23,ENE,67,0.0,6.0,79,0.00,,,0.01,Rainwise IP-100,2013-06-03 15:04:00,
2013-06-03 11:09:00,70.7,64.0,29.23,West,270,2.0,5.0,80,0.00,,,0.01,Rainwise IP-100,2013-06-03 15:09:00,
2013-06-03 11:15:00,70.2,63.0,29.23,SE,135,0.0,6.0,78,0.00,,,0.01,Rainwise IP-100,2013-06-03 15:15:00,
2013-06-03 11:20:00,70.7,61.5,29.23,SW,225,2.0,7.0,73,0.00,,,0.01,Rainwise IP-100,2013-06-03 15:20:00,
2013-06-03 11:25:00,71.2,61.5,29.23,WSW,247,6.0,9.0,71,0.00,,,0.01,Rainwise IP-100,2013-06-03 15:25:00,
2013-06-03 11:30:00,72.4,63.0,29.23,WNW,292,1.0,7.0,72,0.00,,,0.01,Rainwise IP-100,2013-06-03 15:30:00,
2013-06-03 11:35:00,72.8,60.5,29.23,West,270,1.0,6.0,66,0.00,,,0.01,Rainwise IP-100,2013-06-03 15:35:00,
2013-06-03 11:40:00,71.4,61.0,29.23,WSW,247,1.0,8.0,70,0.00,,,0.01,Rainwise IP-100,2013-06-03 15:40:00,
2013-06-03 11:45:00,71.7,62.5,29.23,SSE,157,0.0,6.0,73,0.00,,,0.01,Rainwise IP-100,2013-06-03 15:45:00,
2013-06-03 11:51:00,71.9,62.0,29.23,ENE,67,3.0,4.0,71,0.00,,,0.01,Rainwise IP-100,2013-06-03 15:51:00,
2013-06-03 11:56:00,71.9,61.5,29.23,SW,225,0.0,5.0,69,0.00,,,0.01,Rainwise IP-100,2013-06-03 15:56:00,
2013-06-03 12:01:00,71.7,59.5,29.22,ENE,67,5.0,6.0,66,0.00,,,0.01,Rainwise IP-100,2013-06-03 16:01:00,
2013-06-03 12:06:00,71.4,60.0,29.22,NE,45,6.0,7.0,68,0.00,,,0.01,Rainwise IP-100,2013-06-03 16:06:00,
2013-06-03 12:11:00,71.8,60.5,29.22,SW,225,7.0,7.0,68,0.00,,,0.01,Rainwise IP-100,2013-06-03 16:11:00,
2013-06-03 12:16:00,71.7,57.5,29.22,West,270,7.0,13.0,61,0.00,,,0.01,Rainwise IP-100,2013-06-03 16:16:00,
2013-06-03 12:21:00,73.0,57.0,29.21,WSW,247,6.0,10.0,57,0.00,,,0.01,Rainwise IP-100,2013-06-03 16:21:00,
2013-06-03 12:26:00,72.3,55.0,29.22,SW,225,12.0,13.0,55,0.00,,,0.01,Rainwise IP-100,2013-06-03 16:26:00,
2013-06-03 12:32:00,73.2,56.0,29.22,SW,225,7.0,15.0,54,0.00,,,0.01,Rainwise IP-100,2013-06-03 16:32:00,
2013-06-03 12:37:00,73.6,56.5,29.22,WSW,247,10.0,13.0,55,0.00,,,0.01,Rainwise IP-100,2013-06-03 16:37:00,
2013-06-03 12:42:00,72.9,55.0,29.21,WSW,247,7.0,14.0,54,0.00,,,0.01,Rainwise IP-100,2013-06-03 16:42:00,
2013-06-03 12:47:00,74.2,55.0,29.21,WSW,247,8.0,10.0,51,0.00,,,0.01,Rainwise IP-100,2013-06-03 16:47:00,
2013-06-03 12:52:00,74.6,55.0,29.21,SW,225,6.0,12.0,51,0.00,,,0.01,Rainwise IP-100,2013-06-03 16:52:00,
2013-06-03 12:57:00,73.9,55.0,29.21,West,270,12.0,20.0,52,0.00,,,0.01,Rainwise IP-100,2013-06-03 16:57:00,
2013-06-03 13:02:00,73.1,54.0,29.21,SE,135,1.0,16.0,51,0.00,,,0.01,Rainwise IP-100,2013-06-03 17:02:00,
2013-06-03 13:08:00,72.7,54.5,29.21,SW,225,10.0,15.0,53,0.00,,,0.01,Rainwise IP-100,2013-06-03 17:08:00,
2013-06-03 13:13:00,73.0,54.0,29.21,SSE,157,4.0,13.0,51,0.00,,,0.01,Rainwise IP-100,2013-06-03 17:13:00,
2013-06-03 13:18:00,73.4,54.5,29.21,WSW,247,7.0,12.0,52,0.00,,,0.01,Rainwise IP-100,2013-06-03 17:18:00,
2013-06-03 13:23:00,73.5,56.5,29.21,SW,225,7.0,15.0,55,0.00,,,0.01,Rainwise IP-100,2013-06-03 17:23:00,
2013-06-03 13:28:00,73.9,57.5,29.21,WSW,247,10.0,16.0,56,0.00,,,0.01,Rainwise IP-100,2013-06-03 17:28:00,
2013-06-03 13:33:00,74.3,54.5,29.21,WSW,247,2.0,16.0,50,0.00,,,0.01,Rainwise IP-100,2013-06-03 17:33:00,
2013-06-03 13:38:00,74.3,56.5,29.21,South,180,4.0,13.0,53,0.00,,,0.01,Rainwise IP-100,2013-06-03 17:38:00,
2013-06-03 13:43:00,74.4,58.0,29.21,West,270,7.0,16.0,57,0.00,,,0.01,Rainwise IP-100,2013-06-03 17:43:00,
2013-06-03 13:49:00,73.9,57.0,29.21,West,270,6.0,13.0,55,0.00,,,0.01,Rainwise IP-100,2013-06-03 17:49:00,
2013-06-03 13:54:00,73.7,56.0,29.21,WSW,247,5.0,12.0,53,0.00,,,0.01,Rainwise IP-100,2013-06-03 17:54:00,
2013-06-03 13:59:00,73.3,54.0,29.21,WSW,247,5.0,16.0,51,0.00,,,0.01,Rainwise IP-100,2013-06-03 17:59:00,
2013-06-03 14:04:00,73.3,56.5,29.21,SE,135,0.0,13.0,55,0.00,,,0.01,Rainwise IP-100,2013-06-03 18:04:00,
2013-06-03 14:09:00,73.9,56.0,29.21,SW,225,6.0,10.0,53,0.00,,,0.01,Rainwise IP-100,2013-06-03 18:09:00,
2013-06-03 14:14:00,74.3,55.0,29.20,SW,225,6.0,12.0,51,0.00,,,0.01,Rainwise IP-100,2013-06-03 18:14:00,
2013-06-03 14:19:00,74.9,57.5,29.21,West,270,1.0,9.0,55,0.00,,,0.01,Rainwise IP-100,2013-06-03 18:19:00,
2013-06-03 14:24:00,74.8,55.0,29.21,SW,225,10.0,12.0,51,0.00,,,0.01,Rainwise IP-100,2013-06-03 18:24:00,
2013-06-03 14:30:00,73.4,54.5,29.21,West,270,7.0,13.0,52,0.00,,,0.01,Rainwise IP-100,2013-06-03 18:30:00,
2013-06-03 14:35:00,73.2,56.0,29.21,South,180,0.0,13.0,54,0.00,,,0.01,Rainwise IP-100,2013-06-03 18:35:00,
2013-06-03 14:40:00,73.4,54.5,29.21,West,270,9.0,12.0,52,0.00,,,0.01,Rainwise IP-100,2013-06-03 18:40:00,
2013-06-03 14:45:00,73.4,56.5,29.21,SE,135,0.0,11.0,56,0.00,,,0.01,Rainwise IP-100,2013-06-03 18:45:00,
2013-06-03 14:50:00,74.5,56.5,29.21,WSW,247,8.0,11.0,53,0.00,,,0.01,Rainwise IP-100,2013-06-03 18:50:00,
2013-06-03 14:55:00,73.9,56.0,29.21,WNW,292,1.0,12.0,53,0.00,,,0.01,Rainwise IP-100,2013-06-03 18:55:00,
2013-06-03 15:00:00,73.6,56.5,29.21,WSW,247,9.0,15.0,55,0.00,,,0.01,Rainwise IP-100,2013-06-03 19:00:00,
2013-06-03 15:06:00,73.5,54.5,29.21,SW,225,4.0,15.0,51,0.00,,,0.01,Rainwise IP-100,2013-06-03 19:06:00,
2013-06-03 15:11:00,73.9,57.5,29.21,SW,225,6.0,12.0,56,0.00,,,0.01,Rainwise IP-100,2013-06-03 19:11:00,
2013-06-03 15:16:00,73.6,55.0,29.21,SW,225,7.0,15.0,52,0.00,,,0.01,Rainwise IP-100,2013-06-03 19:16:00,
2013-06-03 15:21:00,74.1,55.0,29.21,SW,225,6.0,9.0,52,0.00,,,0.01,Rainwise IP-100,2013-06-03 19:21:00,
2013-06-03 15:26:00,73.3,57.0,29.21,SW,225,7.0,15.0,57,0.00,,,0.01,Rainwise IP-100,2013-06-03 19:26:00,
2013-06-03 15:31:00,73.0,53.5,29.21,West,270,7.0,12.0,50,0.00,,,0.01,Rainwise IP-100,2013-06-03 19:31:00,
2013-06-03 15:36:00,73.0,53.5,29.21,South,180,2.0,12.0,50,0.00,,,0.01,Rainwise IP-100,2013-06-03 19:36:00,
2013-06-03 15:42:00,72.7,50.5,29.21,WSW,247,9.0,16.0,46,0.00,,,0.01,Rainwise IP-100,2013-06-03 19:42:00,
2013-06-03 15:47:00,71.9,51.0,29.21,WNW,292,9.0,14.0,48,0.00,,,0.01,Rainwise IP-100,2013-06-03 19:47:00,
2013-06-03 15:52:00,72.6,53.5,29.21,WSW,247,9.0,15.0,50,0.00,,,0.01,Rainwise IP-100,2013-06-03 19:52:00,
2013-06-03 15:57:00,72.7,53.5,29.21,WSW,247,3.0,10.0,51,0.00,,,0.01,Rainwise IP-100,2013-06-03 19:57:00,
2013-06-03 16:02:00,73.3,54.5,29.21,SW,225,6.0,10.0,52,0.00,,,0.01,Rainwise IP-100,2013-06-03 20:02:00,
2013-06-03 16:07:00,72.5,53.5,29.21,SSW,202,2.0,14.0,50,0.00,,,0.01,Rainwise IP-100,2013-06-03 20:07:00,
2013-06-03 16:12:00,72.8,53.0,29.21,WSW,247,8.0,10.0,49,0.00,,,0.01,Rainwise IP-100,2013-06-03 20:12:00,
2013-06-03 16:17:00,72.7,53.5,29.21,West,270,6.0,11.0,50,0.00,,,0.01,Rainwise IP-100,2013-06-03 20:17:00,
2013-06-03 16:23:00,72.2,54.0,29.21,West,270,0.0,13.0,53,0.00,,,0.01,Rainwise IP-100,2013-06-03 20:23:00,
2013-06-03 16:28:00,72.5,53.5,29.21,WSW,247,12.0,12.0,51,0.00,,,0.01,Rainwise IP-100,2013-06-03 20:28:00,
2013-06-03 16:33:00,71.8,52.0,29.21,SW,225,7.0,15.0,50,0.00,,,0.01,Rainwise IP-100,2013-06-03 20:33:00,
2013-06-03 16:38:00,71.9,54.5,29.21,South,180,0.0,15.0,55,0.00,,,0.01,Rainwise IP-100,2013-06-03 20:38:00,
2013-06-03 16:43:00,72.4,53.5,29.21,West,270,8.0,10.0,51,0.00,,,0.01,Rainwise IP-100,2013-06-03 20:43:00,
2013-06-03 16:48:00,71.6,52.0,29.21,WSW,247,9.0,15.0,50,0.00,,,0.01,Rainwise IP-100,2013-06-03 20:48:00,
2013-06-03 16:53:00,70.7,50.0,29.21,WSW,247,12.0,17.0,48,0.00,,,0.01,Rainwise IP-100,2013-06-03 20:53:00,
2013-06-03 16:59:00,69.3,49.0,29.21,West,270,7.0,16.0,48,0.00,,,0.01,Rainwise IP-100,2013-06-03 20:59:00,
2013-06-03 17:04:00,69.2,50.5,29.21,SW,225,7.0,15.0,51,0.00,,,0.01,Rainwise IP-100,2013-06-03 21:04:00,
2013-06-03 17:09:00,69.6,49.0,29.21,SW,225,10.0,16.0,48,0.00,,,0.01,Rainwise IP-100,2013-06-03 21:09:00,
2013-06-03 17:14:00,69.7,49.0,29.21,WSW,247,7.0,19.0,48,0.00,,,0.01,Rainwise IP-100,2013-06-03 21:14:00,
2013-06-03 17:19:00,70.0,50.0,29.21,SW,225,12.0,13.0,48,0.00,,,0.01,Rainwise IP-100,2013-06-03 21:19:00,
2013-06-03 17:24:00,69.9,49.0,29.21,SW,225,7.0,16.0,47,0.00,,,0.01,Rainwise IP-100,2013-06-03 21:24:00,
2013-06-03 17:29:00,69.8,50.5,29.21,NE,45,3.0,16.0,50,0.00,,,0.01,Rainwise IP-100,2013-06-03 21:29:00,
2013-06-03 17:34:00,69.8,47.5,29.21,WSW,247,12.0,16.0,45,0.00,,,0.01,Rainwise IP-100,2013-06-03 21:34:00,
2013-06-03 17:39:00,69.6,48.0,29.21,SW,225,6.0,15.0,46,0.00,,,0.01,Rainwise IP-100,2013-06-03 21:39:00,
2013-06-03 17:45:00,69.8,48.0,29.21,WSW,247,6.0,12.0,47,0.00,,,0.01,Rainwise IP-100,2013-06-03 21:45:00,
2013-06-03 17:50:00,69.9,49.0,29.21,WNW,292,3.0,14.0,47,0.00,,,0.01,Rainwise IP-100,2013-06-03 21:50:00,
2013-06-03 17:55:00,69.8,48.0,29.21,WSW,247,7.0,12.0,47,0.00,,,0.01,Rainwise IP-100,2013-06-03 21:55:00,
2013-06-03 18:00:00,68.9,47.0,29.21,NW,315,6.0,12.0,45,0.00,,,0.01,Rainwise IP-100,2013-06-03 22:00:00,
2013-06-03 18:05:00,68.4,47.0,29.21,West,270,8.0,13.0,46,0.00,,,0.01,Rainwise IP-100,2013-06-03 22:05:00,
2013-06-03 18:10:00,68.8,47.5,29.22,SW,225,5.0,9.0,46,0.00,,,0.01,Rainwise IP-100,2013-06-03 22:10:00,
2013-06-03 18:15:00,68.9,47.5,29.22,SSW,202,8.0,9.0,46,0.00,,,0.01,Rainwise IP-100,2013-06-03 22:15:00,
2013-06-03 18:21:00,68.2,47.0,29.22,WSW,247,5.0,13.0,46,0.00,,,0.01,Rainwise IP-100,2013-06-03 22:21:00,
2013-06-03 18:26:00,67.7,46.0,29.22,West,270,4.0,13.0,45,0.00,,,0.01,Rainwise IP-100,2013-06-03 22:26:00,
2013-06-03 18:31:00,68.0,47.0,29.22,SW,225,3.0,10.0,46,0.00,,,0.01,Rainwise IP-100,2013-06-03 22:31:00,
2013-06-03 18:36:00,68.4,47.0,29.21,WSW,247,7.0,10.0,46,0.00,,,0.01,Rainwise IP-100,2013-06-03 22:36:00,
2013-06-03 18:41:00,67.9,45.0,29.22,West,270,11.0,11.0,44,0.00,,,0.01,Rainwise IP-100,2013-06-03 22:41:00,
2013-06-03 18:46:00,67.4,45.0,29.22,WSW,247,6.0,12.0,44,0.00,,,0.01,Rainwise IP-100,2013-06-03 22:46:00,
2013-06-03 18:51:00,66.9,45.0,29.22,NW,315,2.0,13.0,45,0.00,,,0.01,Rainwise IP-100,2013-06-03 22:51:00,
2013-06-03 18:56:00,66.6,47.0,29.22,West,270,4.0,10.0,48,0.00,,,0.01,Rainwise IP-100,2013-06-03 22:56:00,
2013-06-03 19:01:00,66.5,45.0,29.22,West,270,4.0,10.0,45,0.00,,,0.01,Rainwise IP-100,2013-06-03 23:01:00,
2013-06-03 19:07:00,65.9,42.0,29.22,NW,315,6.0,13.0,42,0.00,,,0.01,Rainwise IP-100,2013-06-03 23:07:00,
2013-06-03 19:12:00,65.6,43.0,29.22,SW,225,7.0,12.0,44,0.00,,,0.01,Rainwise IP-100,2013-06-03 23:12:00,
2013-06-03 19:17:00,65.3,43.0,29.22,SW,225,4.0,13.0,45,0.00,,,0.01,Rainwise IP-100,2013-06-03 23:17:00,
2013-06-03 19:22:00,64.9,42.0,29.22,WSW,247,6.0,11.0,44,0.00,,,0.01,Rainwise IP-100,2013-06-03 23:22:00,
2013-06-03 19:27:00,64.6,42.0,29.21,WSW,247,5.0,13.0,44,0.00,,,0.01,Rainwise IP-100,2013-06-03 23:27:00,
2013-06-03 19:32:00,64.5,42.0,29.21,WNW,292,4.0,12.0,44,0.00,,,0.01,Rainwise IP-100,2013-06-03 23:32:00,
2013-06-03 19:37:00,63.8,42.0,29.21,West,270,4.0,10.0,45,0.00,,,0.01,Rainwise IP-100,2013-06-03 23:37:00,
2013-06-03 19:43:00,63.1,43.0,29.21,NW,315,4.0,9.0,48,0.00,,,0.01,Rainwise IP-100,2013-06-03 23:43:00,
2013-06-03 19:48:00,62.1,43.0,29.21,NW,315,4.0,8.0,50,0.00,,,0.01,Rainwise IP-100,2013-06-03 23:48:00,
2013-06-03 19:53:00,61.5,44.0,29.21,West,270,2.0,7.0,53,0.00,,,0.01,Rainwise IP-100,2013-06-03 23:53:00,
2013-06-03 19:58:00,60.7,44.0,29.21,NW,315,0.0,4.0,54,0.00,,,0.01,Rainwise IP-100,2013-06-03 23:58:00,
2013-06-03 20:03:00,59.8,46.0,29.21,WNW,292,2.0,6.0,59,0.00,,,0.01,Rainwise IP-100,2013-06-04 00:03:00,
2013-06-03 20:08:00,59.3,45.0,29.21,WNW,292,0.0,8.0,58,0.00,,,0.01,Rainwise IP-100,2013-06-04 00:08:00,
2013-06-03 20:13:00,58.9,45.0,29.21,WNW,292,1.0,3.0,59,0.00,,,0.01,Rainwise IP-100,2013-06-04 00:13:00,
2013-06-03 20:18:00,58.4,46.0,29.21,WNW,292,7.0,7.0,63,0.00,,,0.01,Rainwise IP-100,2013-06-04 00:18:00,
2013-06-03 20:24:00,58.8,47.0,29.21,WSW,247,4.0,7.0,63,0.00,,,0.01,Rainwise IP-100,2013-06-04 00:24:00,
2013-06-03 20:29:00,58.4,46.0,29.21,West,270,5.0,6.0,64,0.00,,,0.01,Rainwise IP-100,2013-06-04 00:29:00,
2013-06-03 20:34:00,58.4,46.0,29.21,WSW,247,5.0,7.0,64,0.00,,,0.01,Rainwise IP-100,2013-06-04 00:34:00,
2013-06-03 20:39:00,57.8,47.0,29.21,SW,225,6.0,6.0,66,0.00,,,0.01,Rainwise IP-100,2013-06-04 00:39:00,
2013-06-03 20:44:00,57.6,47.5,29.21,WSW,247,7.0,7.0,69,0.00,,,0.01,Rainwise IP-100,2013-06-04 00:44:00,
2013-06-03 20:49:00,57.4,47.5,29.21,WSW,247,5.0,7.0,69,0.00,,,0.01,Rainwise IP-100,2013-06-04 00:49:00,
2013-06-03 20:54:00,57.1,47.5,29.21,WSW,247,6.0,7.0,71,0.00,,,0.01,Rainwise IP-100,2013-06-04 00:54:00,
2013-06-03 21:00:00,57.7,47.5,29.21,WSW,247,10.0,10.0,68,0.00,,,0.01,Rainwise IP-100,2013-06-04 01:00:00,
2013-06-03 21:05:00,58.3,47.0,29.21,SW,225,9.0,12.0,66,0.00,,,0.01,Rainwise IP-100,2013-06-04 01:05:00,
2013-06-03 21:10:00,58.6,47.5,29.21,West,270,4.0,14.0,66,0.00,,,0.01,Rainwise IP-100,2013-06-04 01:10:00,
2013-06-03 21:15:00,58.4,47.0,29.21,WSW,247,7.0,10.0,65,0.00,,,0.01,Rainwise IP-100,2013-06-04 01:15:00,
2013-06-03 21:20:00,58.1,47.0,29.21,WSW,247,7.0,13.0,66,0.00,,,0.01,Rainwise IP-100,2013-06-04 01:20:00,
2013-06-03 21:25:00,57.9,47.0,29.21,WSW,247,9.0,11.0,65,0.00,,,0.01,Rainwise IP-100,2013-06-04 01:25:00,
2013-06-03 21:30:00,57.9,47.0,29.21,WSW,247,7.0,15.0,65,0.00,,,0.01,Rainwise IP-100,2013-06-04 01:30:00,
2013-06-03 21:35:00,57.7,47.0,29.21,WSW,247,9.0,15.0,66,0.00,,,0.01,Rainwise IP-100,2013-06-04 01:35:00,
2013-06-03 21:41:00,57.8,46.0,29.21,WSW,247,12.0,15.0,64,0.00,,,0.01,Rainwise IP-100,2013-06-04 01:41:00,
2013-06-03 21:46:00,57.8,46.0,29.21,SW,225,10.0,16.0,64,0.00,,,0.01,Rainwise IP-100,2013-06-04 01:46:00,
2013-06-03 21:51:00,57.9,46.0,29.21,WSW,247,10.0,17.0,63,0.00,,,0.01,Rainwise IP-100,2013-06-04 01:51:00,
2013-06-03 21:56:00,57.7,45.0,29.21,WSW,247,8.0,17.0,63,0.00,,,0.01,Rainwise IP-100,2013-06-04 01:56:00,
2013-06-03 22:01:00,57.7,45.0,29.21,WSW,247,7.0,12.0,63,0.00,,,0.01,Rainwise IP-100,2013-06-04 02:01:00,
2013-06-03 22:06:00,57.7,45.0,29.21,WSW,247,7.0,13.0,63,0.00,,,0.01,Rainwise IP-100,2013-06-04 02:06:00,
2013-06-03 22:11:00,57.7,45.0,29.21,SW,225,6.0,13.0,62,0.00,,,0.01,Rainwise IP-100,2013-06-04 02:11:00,
2013-06-03 22:17:00,57.7,44.0,29.21,WSW,247,7.0,15.0,61,0.00,,,0.01,Rainwise IP-100,2013-06-04 02:17:00,
2013-06-03 22:22:00,57.2,45.0,29.21,WSW,247,11.0,13.0,63,0.00,,,0.01,Rainwise IP-100,2013-06-04 02:22:00,
2013-06-03 22:27:00,57.0,45.0,29.21,WSW,247,7.0,13.0,63,0.00,,,0.01,Rainwise IP-100,2013-06-04 02:27:00,
2013-06-03 22:32:00,56.9,45.0,29.22,WSW,247,6.0,12.0,63,0.00,,,0.01,Rainwise IP-100,2013-06-04 02:32:00,
2013-06-03 22:37:00,56.7,44.0,29.22,WSW,247,9.0,11.0,63,0.00,,,0.01,Rainwise IP-100,2013-06-04 02:37:00,
2013-06-03 22:42:00,56.7,44.0,29.22,West,270,8.0,14.0,62,0.00,,,0.01,Rainwise IP-100,2013-06-04 02:42:00,
2013-06-03 22:47:00,56.6,44.0,29.23,WSW,247,6.0,13.0,62,0.00,,,0.01,Rainwise IP-100,2013-06-04 02:47:00,
2013-06-03 22:52:00,56.4,44.0,29.23,SW,225,2.0,9.0,62,0.00,,,0.01,Rainwise IP-100,2013-06-04 02:52:00,
2013-06-03 22:58:00,55.9,43.0,29.22,WSW,247,6.0,6.0,63,0.00,,,0.01,Rainwise IP-100,2013-06-04 02:58:00,
2013-06-03 23:03:00,55.6,44.0,29.22,SW,225,5.0,7.0,64,0.00,,,0.01,Rainwise IP-100,2013-06-04 03:03:00,
2013-06-03 23:08:00,54.9,44.0,29.23,West,270,1.0,5.0,66,0.00,,,0.01,Rainwise IP-100,2013-06-04 03:08:00,
2013-06-03 23:13:00,54.2,43.0,29.23,West,270,3.0,6.0,66,0.00,,,0.01,Rainwise IP-100,2013-06-04 03:13:00,
2013-06-03 23:18:00,54.3,43.0,29.22,West,270,4.0,7.0,65,0.00,,,0.01,Rainwise IP-100,2013-06-04 03:18:00,
2013-06-03 23:23:00,54.1,43.0,29.22,SW,225,2.0,6.0,66,0.00,,,0.01,Rainwise IP-100,2013-06-04 03:23:00,
2013-06-03 23:28:00,53.7,42.0,29.22,WSW,247,2.0,6.0,67,0.00,,,0.01,Rainwise IP-100,2013-06-04 03:28:00,
2013-06-03 23:34:00,53.1,42.0,29.22,WSW,247,0.0,5.0,67,0.00,,,0.01,Rainwise IP-100,2013-06-04 03:34:00,
2013-06-03 23:39:00,52.3,41.0,29.22,NW,315,0.0,3.0,67,0.00,,,0.01,Rainwise IP-100,2013-06-04 03:39:00,
2013-06-03 23:44:00,51.2,41.0,29.22,NW,315,0.0,2.0,68,0.00,,,0.01,Rainwise IP-100,2013-06-04 03:44:00,
2013-06-03 23:49:00,49.9,41.0,29.21,NW,315,1.0,2.0,72,0.00,,,0.01,Rainwise IP-100,2013-06-04 03:49:00,
2013-06-03 23:54:00,48.9,42.0,29.21,NW,315,0.0,3.0,77,0.00,,,0.01,Rainwise IP-100,2013-06-04 03:54:00,
2013-06-03 23:59:00,48.7,41.0,29.21,WNW,292,4.0,5.0,75,0.00,,,0.01,Rainwise IP-100,2013-06-04 03:59:00,